createdAt,value
2023-04-02T00:01:38.950Z,97600.66
2023-04-02T00:04:42.808Z,97608.13
2023-04-02T00:07:51.805Z,97609.63
2023-04-02T00:10:59.137Z,97603.44
2023-04-02T00:14:04.681Z,97602.03
2023-04-02T00:17:08.398Z,97602.63
2023-04-02T00:20:18.079Z,97611.72
2023-04-02T00:23:24.532Z,97619.16
2023-04-02T00:26:33.951Z,97617.78
2023-04-02T00:29:37.846Z,97619.88
2023-04-02T00:32:41.954Z,97625.25
2023-04-02T00:35:46.663Z,97629.19
2023-04-02T00:38:52.828Z,97630.25
2023-04-02T00:42:05.109Z,97628.59
2023-04-02T00:45:23.225Z,97618.09
2023-04-02T00:48:43.927Z,97625.94
2023-04-02T00:51:54.576Z,97631.75
2023-04-02T00:55:07.868Z,97625.78
2023-04-02T00:58:26.579Z,97623.59
2023-04-02T01:01:37.816Z,97627.91
2023-04-02T01:04:42.954Z,97630.09
2023-04-02T01:08:04.291Z,97636.50
2023-04-02T01:11:33.232Z,97642.97
2023-04-02T01:14:57.238Z,97631.03
2023-04-02T01:18:26.939Z,97638.50
2023-04-02T01:21:52.833Z,97636.84
2023-04-02T01:24:59.629Z,97634.63
2023-04-02T01:28:19.518Z,97639.97
2023-04-02T01:31:27.727Z,97638.94
2023-04-02T01:34:32.440Z,97640.56
2023-04-02T01:37:49.513Z,97645.94
2023-04-02T01:41:04.131Z,97644.31
2023-04-02T01:44:13.331Z,97641.50
2023-04-02T01:47:27.266Z,97639.13
2023-04-02T01:50:37.350Z,97643.78
2023-04-02T01:53:41.966Z,97641.97
2023-04-02T01:56:48.352Z,97651.16
2023-04-02T01:59:52.868Z,97656.31
2023-04-02T02:03:01.213Z,97657.34
2023-04-02T02:06:08.322Z,97665.84
2023-04-02T02:09:23.118Z,97671.84
2023-04-02T02:12:27.525Z,97672.56
2023-04-02T02:15:35.245Z,97672.56
2023-04-02T02:18:40.880Z,97670.16
2023-04-02T02:21:50.610Z,97678.06
2023-04-02T02:24:55.751Z,97678.94
2023-04-02T02:28:07.258Z,97678.56
2023-04-02T02:31:20.649Z,97678.22
2023-04-02T02:34:38.837Z,97691.00
2023-04-02T02:37:50.616Z,97691.44
2023-04-02T02:41:02.562Z,97690.25
2023-04-02T02:44:15.863Z,97696.06
2023-04-02T02:47:26.755Z,97699.19
2023-04-02T02:50:34.959Z,97706.00
2023-04-02T02:53:53.148Z,97710.53
2023-04-02T02:57:03.696Z,97715.06
2023-04-02T03:00:13.021Z,97711.19
2023-04-02T03:03:23.214Z,97712.47
2023-04-02T03:06:34.074Z,97716.41
2023-04-02T03:09:51.630Z,97716.84
2023-04-02T03:13:09.134Z,97722.03
2023-04-02T03:16:23.064Z,97721.88
2023-04-02T03:19:36.922Z,97720.22
2023-04-02T03:22:52.295Z,97725.19
2023-04-02T03:26:05.787Z,97727.72
2023-04-02T03:29:18.772Z,97732.47
2023-04-02T03:32:30.603Z,97731.06
2023-04-02T03:35:43.367Z,97729.84
2023-04-02T03:38:55.287Z,97744.72
2023-04-02T03:42:09.110Z,97745.34
2023-04-02T03:45:21.254Z,97757.09
2023-04-02T03:48:36.035Z,97754.63
2023-04-02T03:51:53.762Z,97755.47
2023-04-02T03:55:03.823Z,97762.50
2023-04-02T03:58:17.646Z,97775.25
2023-04-02T04:01:32.219Z,97780.22
2023-04-02T04:04:42.086Z,97781.84
2023-04-02T04:07:47.089Z,97789.25
2023-04-02T04:10:57.390Z,97790.91
2023-04-02T04:14:08.340Z,97789.50
2023-04-02T04:17:24.622Z,97795.50
2023-04-02T04:20:41.913Z,97812.16
2023-04-02T04:23:52.813Z,97820.59
2023-04-02T04:27:10.166Z,97823.91
2023-04-02T04:30:27.821Z,97824.56
2023-04-02T04:33:40.861Z,97836.28
2023-04-02T04:36:55.193Z,97831.34
2023-04-02T04:40:17.636Z,97840.41
2023-04-02T04:43:39.405Z,97851.09
2023-04-02T04:46:50.747Z,97847.59
2023-04-02T04:50:01.981Z,97845.34
2023-04-02T04:53:17.740Z,97849.25
2023-04-02T04:56:27.997Z,97863.69
2023-04-02T04:59:50.998Z,97869.66
2023-04-02T05:03:06.907Z,97879.97
2023-04-02T05:06:27.161Z,97874.41
2023-04-02T05:09:37.595Z,97890.03
2023-04-02T05:12:49.872Z,97898.50
2023-04-02T05:16:12.115Z,97899.72
2023-04-02T05:19:25.227Z,97904.69
2023-04-02T05:22:41.314Z,97906.72
2023-04-02T05:25:56.274Z,97905.28
2023-04-02T05:29:10.490Z,97909.63
2023-04-02T05:32:25.009Z,97908.38
2023-04-02T05:35:33.466Z,97921.31
2023-04-02T05:38:41.069Z,97927.69
2023-04-02T05:41:47.934Z,97929.13
2023-04-02T05:45:26.036Z,97937.97
2023-04-02T05:48:40.484Z,97951.13
2023-04-02T05:51:52.143Z,97952.75
2023-04-02T05:55:07.019Z,97964.66
2023-04-02T06:01:47.888Z,97964.44
2023-04-02T06:05:05.491Z,97965.84
2023-04-02T06:08:19.806Z,97967.06
2023-04-02T06:11:30.820Z,97969.91
2023-04-02T06:14:37.387Z,97977.06
2023-04-02T06:17:49.550Z,97981.78
2023-04-02T06:20:56.491Z,97996.94
2023-04-02T06:24:06.805Z,98006.34
2023-04-02T06:27:20.118Z,98014.94
2023-04-02T06:30:31.280Z,98016.56
2023-04-02T06:33:34.998Z,98009.97
2023-04-02T06:36:41.239Z,98010.78
2023-04-02T06:39:46.513Z,98016.13
2023-04-02T06:42:59.749Z,98010.78
2023-04-02T06:46:29.764Z,98024.50
2023-04-02T06:49:45.468Z,98035.19
2023-04-02T06:52:54.934Z,98039.31
2023-04-02T06:56:07.299Z,98047.31
2023-04-02T06:59:12.900Z,98056.34
2023-04-02T07:02:31.162Z,98049.13
2023-04-02T07:05:36.712Z,98062.03
2023-04-02T07:08:42.226Z,98070.84
2023-04-02T07:11:46.442Z,98063.31
2023-04-02T07:14:50.800Z,98070.09
2023-04-02T07:17:57.198Z,98064.97
2023-04-02T07:21:01.871Z,98072.84
2023-04-02T07:24:07.794Z,98077.75
2023-04-02T07:27:12.168Z,98072.50
2023-04-02T07:30:16.173Z,98083.88
2023-04-02T07:33:23.710Z,98086.22
2023-04-02T07:36:30.786Z,98091.22
2023-04-02T07:39:37.810Z,98103.41
2023-04-02T07:42:42.681Z,98102.81
2023-04-02T07:45:46.524Z,98115.78
2023-04-02T07:48:50.065Z,98125.88
2023-04-02T07:51:54.077Z,98127.94
2023-04-02T07:54:59.014Z,98121.97
2023-04-02T07:58:03.105Z,98137.41
2023-04-02T08:01:14.854Z,98136.72
2023-04-02T08:04:21.458Z,98146.78
2023-04-02T08:07:25.086Z,98145.38
2023-04-02T08:10:30.881Z,98152.19
2023-04-02T08:13:34.659Z,98160.81
2023-04-02T08:16:50.156Z,98154.25
2023-04-02T08:19:56.298Z,98171.31
2023-04-02T08:23:01.062Z,98172.75
2023-04-02T08:26:08.488Z,98177.06
2023-04-02T08:29:12.561Z,98185.84
2023-04-02T08:32:17.348Z,98184.19
2023-04-02T08:35:21.076Z,98195.66
2023-04-02T08:38:24.770Z,98192.53
2023-04-02T08:41:32.237Z,98195.59
2023-04-02T08:45:10.880Z,98194.56
2023-04-02T08:48:24.904Z,98201.75
2023-04-02T08:51:32.510Z,98207.94
2023-04-02T08:54:38.588Z,98207.09
2023-04-02T08:57:55.528Z,98215.81
2023-04-02T09:01:04.511Z,98219.38
2023-04-02T09:04:19.030Z,98224.50
2023-04-02T09:07:23.251Z,98224.72
2023-04-02T09:10:40.382Z,98227.19
2023-04-02T09:13:48.470Z,98236.81
2023-04-02T09:16:56.771Z,98238.47
2023-04-02T09:20:17.930Z,98246.28
2023-04-02T09:23:27.064Z,98251.44
2023-04-02T09:26:34.137Z,98256.16
2023-04-02T09:29:45.257Z,98263.34
2023-04-02T09:32:53.223Z,98272.38
2023-04-02T09:35:58.582Z,98278.34
2023-04-02T09:39:08.340Z,98273.19
2023-04-02T09:42:34.056Z,98284.09
2023-04-02T09:45:40.622Z,98289.94
2023-04-02T09:48:53.517Z,98289.56
2023-04-02T09:52:22.031Z,98292.88
2023-04-02T09:55:29.226Z,98299.69
2023-04-02T09:58:33.276Z,98300.94
2023-04-02T10:01:40.866Z,98315.53
2023-04-02T10:04:48.097Z,98304.25
2023-04-02T10:07:54.740Z,98304.91
2023-04-02T10:11:05.200Z,98309.47
2023-04-02T10:14:20.294Z,98313.19
2023-04-02T10:17:33.731Z,98307.25
2023-04-02T10:20:50.985Z,98322.81
2023-04-02T10:23:55.804Z,98331.50
2023-04-02T10:27:17.712Z,98335.22
2023-04-02T10:30:27.548Z,98338.53
2023-04-02T10:33:39.840Z,98338.38
2023-04-02T10:36:54.480Z,98338.16
2023-04-02T10:40:05.282Z,98340.59
2023-04-02T10:44:16.725Z,98344.31
2023-04-02T10:47:44.721Z,98356.91
2023-04-02T10:51:00.691Z,98355.88
2023-04-02T10:54:23.314Z,98352.78
2023-04-02T10:57:39.420Z,98361.44
2023-04-02T11:00:48.467Z,98367.38
2023-04-02T11:03:58.660Z,98374.41
2023-04-02T11:07:14.276Z,98372.53
2023-04-02T11:10:21.459Z,98372.88
2023-04-02T11:13:32.607Z,98379.47
2023-04-02T11:16:39.398Z,98381.69
2023-04-02T11:19:47.142Z,98381.22
2023-04-02T11:26:41.476Z,98400.84
2023-04-02T11:29:47.945Z,98409.03
2023-04-02T11:32:52.034Z,98412.88
2023-04-02T11:35:56.837Z,98410.28
2023-04-02T11:39:14.676Z,98416.28
2023-04-02T11:42:32.242Z,98415.09
2023-04-02T11:45:58.671Z,98417.88
2023-04-02T11:49:40.104Z,98432.19
2023-04-02T11:53:03.900Z,98434.84
2023-04-02T11:56:21.062Z,98441.75
2023-04-02T11:59:39.181Z,98433.22
2023-04-02T12:03:08.547Z,98443.59
2023-04-02T12:06:27.476Z,98449.50
2023-04-02T12:09:44.581Z,98450.50
2023-04-02T12:12:48.724Z,98452.53
2023-04-02T12:15:58.768Z,98461.00
2023-04-02T12:19:03.522Z,98463.03
2023-04-02T12:22:20.048Z,98455.00
2023-04-02T12:25:31.828Z,98469.78
2023-04-02T12:28:38.002Z,98465.22
2023-04-02T12:31:46.044Z,98464.34
2023-04-02T12:34:50.449Z,98473.38
2023-04-02T12:37:54.852Z,98469.50
2023-04-02T12:41:01.794Z,98471.00
2023-04-02T12:44:11.604Z,98476.78
2023-04-02T12:47:16.891Z,98478.69
2023-04-02T12:50:22.514Z,98486.06
2023-04-02T12:53:34.294Z,98479.25
2023-04-02T12:56:37.829Z,98489.88
2023-04-02T12:59:44.019Z,98494.00
2023-04-02T13:02:52.887Z,98500.53
2023-04-02T13:05:58.629Z,98505.44
2023-04-02T13:09:05.320Z,98505.50
2023-04-02T13:12:33.499Z,98501.88
2023-04-02T13:15:37.186Z,98501.22
2023-04-02T13:18:44.808Z,98516.50
2023-04-02T13:21:48.589Z,98517.28
2023-04-02T13:24:57.395Z,98521.38
2023-04-02T13:28:00.943Z,98522.81
2023-04-02T13:31:04.691Z,98527.81
2023-04-02T13:34:09.772Z,98536.38
2023-04-02T13:37:14.367Z,98544.03
2023-04-02T13:40:20.844Z,98546.94
2023-04-02T13:43:25.448Z,98551.06
2023-04-02T13:46:31.748Z,98554.13
2023-04-02T13:49:37.119Z,98555.59
2023-04-02T13:52:40.885Z,98565.66
2023-04-02T13:55:44.755Z,98552.78
2023-04-02T13:58:48.286Z,98565.63
2023-04-02T14:01:57.091Z,98558.88
2023-04-02T14:05:20.494Z,98564.63
2023-04-02T14:08:43.037Z,98565.50
2023-04-02T14:12:06.252Z,98561.06
2023-04-02T14:15:31.310Z,98569.41
2023-04-02T14:18:58.141Z,98565.50
2023-04-02T14:22:26.683Z,98571.22
2023-04-02T14:25:46.704Z,98575.50
2023-04-02T14:29:07.315Z,98579.19
2023-04-02T14:32:20.560Z,98594.66
2023-04-02T14:35:32.281Z,98592.25
2023-04-02T14:38:51.834Z,98597.06
2023-04-02T14:42:03.922Z,98600.28
2023-04-02T14:45:20.851Z,98603.00
2023-04-02T14:48:42.566Z,98613.38
2023-04-02T14:51:52.009Z,98612.50
2023-04-02T14:55:04.279Z,98610.56
2023-04-02T14:58:20.400Z,98619.91
2023-04-02T15:01:36.368Z,98637.91
2023-04-02T15:04:47.232Z,98632.00
2023-04-02T15:07:58.962Z,98620.53
2023-04-02T15:11:12.185Z,98634.97
2023-04-02T15:14:22.396Z,98639.41
2023-04-02T15:17:26.073Z,98651.66
2023-04-02T15:20:41.189Z,98641.97
2023-04-02T15:24:01.701Z,98645.22
2023-04-02T15:27:34.878Z,98651.19
2023-04-02T15:30:42.658Z,98656.72
2023-04-02T15:33:53.180Z,98661.41
2023-04-02T15:37:18.401Z,98658.56
2023-04-02T15:40:45.675Z,98668.41
2023-04-02T15:44:04.460Z,98664.91
2023-04-02T15:47:25.158Z,98663.72
2023-04-02T15:50:48.245Z,98671.16
2023-04-02T15:54:10.960Z,98684.50
2023-04-02T15:57:36.499Z,98673.75
2023-04-02T16:00:52.861Z,98680.09
2023-04-02T16:04:20.862Z,98685.63
2023-04-02T16:07:51.812Z,98689.66
2023-04-02T16:10:55.550Z,98692.06
2023-04-02T16:14:16.945Z,98699.41
2023-04-02T16:17:34.875Z,98701.13
2023-04-02T16:20:47.292Z,98708.47
2023-04-02T16:23:52.390Z,98718.31
2023-04-02T16:27:11.639Z,98718.53
2023-04-02T16:30:48.005Z,98723.41
2023-04-02T16:34:05.231Z,98719.25
2023-04-02T16:37:27.661Z,98730.25
2023-04-02T16:40:41.822Z,98726.41
2023-04-02T16:44:01.582Z,98732.75
2023-04-02T16:47:30.577Z,98741.25
2023-04-02T16:50:53.321Z,98745.09
2023-04-02T16:54:11.372Z,98741.28
2023-04-02T16:57:31.363Z,98753.34
2023-04-02T17:00:47.672Z,98763.34
2023-04-02T17:04:46.594Z,98758.72
2023-04-02T17:08:03.960Z,98760.09
2023-04-02T17:11:11.009Z,98769.94
2023-04-02T17:14:32.637Z,98772.94
2023-04-02T17:17:36.642Z,98776.63
2023-04-02T17:20:41.461Z,98779.28
2023-04-02T17:23:56.256Z,98784.44
2023-04-02T17:27:07.332Z,98789.97
2023-04-02T17:30:18.744Z,98801.47
2023-04-02T17:33:26.679Z,98798.78
2023-04-02T17:36:45.260Z,98804.97
2023-04-02T17:40:07.247Z,98808.97
2023-04-02T17:43:31.797Z,98812.28
2023-04-02T17:46:40.703Z,98809.47
2023-04-02T17:50:00.542Z,98819.13
2023-04-02T17:53:23.538Z,98831.63
2023-04-02T17:56:59.283Z,98825.31
2023-04-02T18:00:22.330Z,98830.53
2023-04-02T18:04:16.738Z,98840.22
2023-04-02T18:07:40.255Z,98849.59
2023-04-02T18:11:02.484Z,98836.25
2023-04-02T18:14:29.602Z,98854.25
2023-04-02T18:17:49.034Z,98841.28
2023-04-02T18:21:08.892Z,98856.59
2023-04-02T18:24:39.085Z,98860.63
2023-04-02T18:28:07.773Z,98865.63
2023-04-02T18:31:28.982Z,98867.63
2023-04-02T18:34:56.554Z,98864.97
2023-04-02T18:38:20.280Z,98876.97
2023-04-02T18:41:45.945Z,98875.97
2023-04-02T18:45:03.623Z,98885.63
2023-04-02T18:48:30.054Z,98881.97
2023-04-02T18:51:39.642Z,98882.81
2023-04-02T18:54:49.977Z,98891.31
2023-04-02T18:58:05.070Z,98905.00
2023-04-02T19:01:15.505Z,98896.66
2023-04-02T19:04:28.541Z,98898.66
2023-04-02T19:07:40.150Z,98901.16
2023-04-02T19:10:46.504Z,98909.78
2023-04-02T19:13:51.414Z,98917.63
2023-04-02T19:17:20.205Z,98914.94
2023-04-02T19:20:38.707Z,98924.94
2023-04-02T19:24:11.616Z,98924.94
2023-04-02T19:27:31.141Z,98924.94
2023-04-02T19:30:53.847Z,98926.97
2023-04-02T19:34:09.385Z,98933.31
2023-04-02T19:37:24.751Z,98941.47
2023-04-02T19:40:44.771Z,98945.78
2023-04-02T19:43:48.605Z,98941.28
2023-04-02T19:46:52.629Z,98953.97
2023-04-02T19:49:57.596Z,98955.13
2023-04-02T19:53:02.656Z,98960.09
2023-04-02T19:56:06.388Z,98959.47
2023-04-02T19:59:18.160Z,98965.97
2023-04-02T20:02:22.350Z,98971.94
2023-04-02T20:05:26.334Z,98971.63
2023-04-02T20:08:31.931Z,98981.59
2023-04-02T20:11:37.426Z,98974.78
2023-04-02T20:14:41.452Z,98981.28
2023-04-02T20:17:45.163Z,98983.94
2023-04-02T20:20:49.605Z,98977.59
2023-04-02T20:23:56.052Z,98979.91
2023-04-02T20:26:59.658Z,98983.06
2023-04-02T20:30:03.644Z,98992.53
2023-04-02T20:33:07.171Z,98995.50
2023-04-02T20:36:13.719Z,99002.84
2023-04-02T20:39:19.502Z,99002.63
2023-04-02T20:42:23.498Z,99012.44
2023-04-02T20:45:29.298Z,99003.13
2023-04-02T20:48:34.925Z,99014.94
2023-04-02T20:51:38.576Z,99010.41
2023-04-02T20:54:43.746Z,99007.91
2023-04-02T20:57:47.576Z,99008.88
2023-04-02T21:00:51.966Z,99013.56
2023-04-02T21:03:57.940Z,99016.03
2023-04-02T21:07:01.728Z,99020.72
2023-04-02T21:10:07.870Z,99018.06
2023-04-02T21:13:11.679Z,99024.00
2023-04-02T21:16:20.131Z,99028.34
2023-04-02T21:19:24.557Z,99023.03
2023-04-02T21:22:28.256Z,99023.03
2023-04-02T21:25:33.614Z,99027.84
2023-04-02T21:28:37.305Z,99032.34
2023-04-02T21:31:43.316Z,99031.66
2023-04-02T21:34:46.857Z,99023.19
2023-04-02T21:37:51.278Z,99037.00
2023-04-02T21:40:56.558Z,99030.53
2023-04-02T21:44:03.210Z,99033.72
2023-04-02T21:47:07.223Z,99041.38
2023-04-02T21:50:11.748Z,99038.03
2023-04-02T21:53:15.724Z,99044.88
2023-04-02T21:56:23.001Z,99044.19
2023-04-02T21:59:26.601Z,99051.69
2023-04-02T22:02:30.725Z,99050.53
2023-04-02T22:05:34.363Z,99050.22
2023-04-02T22:08:41.288Z,99056.53
2023-04-02T22:11:49.339Z,99064.50
2023-04-02T22:14:53.108Z,99069.53
2023-04-02T22:17:56.631Z,99066.72
2023-04-02T22:21:02.255Z,99072.88
2023-04-02T22:24:09.572Z,99079.03
2023-04-02T22:27:14.728Z,99087.66
2023-04-02T22:30:18.498Z,99086.81
2023-04-02T22:33:22.708Z,99076.84
2023-04-02T22:36:29.219Z,99078.84
2023-04-02T22:39:33.119Z,99082.31
2023-04-02T22:42:38.519Z,99085.81
2023-04-02T22:45:46.122Z,99087.66
2023-04-02T22:48:51.302Z,99086.16
2023-04-02T22:51:55.193Z,99088.31
2023-04-02T22:54:58.697Z,99084.97
2023-04-02T22:58:03.989Z,99086.78
2023-04-02T23:01:10.458Z,99083.28
2023-04-02T23:04:14.383Z,99083.59
2023-04-02T23:07:18.196Z,99084.94
2023-04-02T23:10:22.381Z,99088.06
2023-04-02T23:13:27.392Z,99089.06
2023-04-02T23:16:31.679Z,99084.72
2023-04-02T23:19:35.691Z,99091.56
2023-04-02T23:22:39.847Z,99088.22
2023-04-02T23:25:43.588Z,99090.22
2023-04-02T23:28:49.376Z,99102.50
2023-04-02T23:31:53.029Z,99092.72
2023-04-02T23:34:56.942Z,99104.84
2023-04-02T23:38:00.543Z,99096.34
2023-04-02T23:41:04.523Z,99099.16
2023-04-02T23:44:10.897Z,99103.78
2023-04-02T23:47:14.672Z,99103.63
2023-04-02T23:50:18.557Z,99104.31
2023-04-02T23:53:22.366Z,99101.50
2023-04-02T23:56:27.234Z,99099.81
2023-04-02T23:59:32.581Z,99103.16
